Time;durP1;ratioP1;P1;durP2;ratioP2;P2;SDS_P1;SDS_P2;PMS_P1;PMS_P2;Temp;Humidity;BMP_temperature;BMP_pressure;BME280_temperature;BME280_humidity;BME280_pressure;Samples;Min_cycle;Max_cycle;Signal;HPM_P1;HPM_P2
2023/07/04 00:07:36;;;;;;;2.20;1.30;;;12.30;99.90;;;;;;21029696;28;20111;-49
2023/07/04 00:17:39;;;;;;;3.50;1.50;;;12.10;99.90;;;;;;21028970;28;20132;-50
2023/07/04 00:27:40;;;;;;;1.88;1.50;;;12.00;99.90;;;;;;21003376;28;20068;-53
2023/07/04 00:37:43;;;;;;;3.15;2.00;;;11.90;99.90;;;;;;20990451;28;20454;-50
2023/07/04 00:47:53;;;;;;;1.83;1.40;;;11.80;99.90;;;;;;20984078;28;20501;-51
2023/07/04 00:57:55;;;;;;;3.73;1.70;;;11.80;99.90;;;;;;21026154;28;20060;-51
2023/07/04 01:08:22;;;;;;;2.88;2.15;;;11.70;99.90;;;;;;21037230;28;20378;-48
2023/07/04 01:18:24;;;;;;;2.13;1.85;;;11.50;99.90;;;;;;21021041;28;20156;-53
2023/07/04 01:28:29;;;;;;;2.72;2.10;;;11.30;99.90;;;;;;21015561;28;20490;-49
2023/07/04 01:38:31;;;;;;;3.35;2.50;;;11.20;99.90;;;;;;21042732;28;20117;-51
2023/07/04 01:48:32;;;;;;;3.17;2.45;;;11.20;99.90;;;;;;21036658;28;20543;-48
2023/07/04 01:58:34;;;;;;;4.00;2.70;;;11.00;99.90;;;;;;20986389;28;20080;-43
2023/07/04 02:08:36;;;;;;;4.03;3.03;;;11.00;99.90;;;;;;20986949;28;20477;-43
2023/07/04 02:18:38;;;;;;;3.50;2.13;;;11.00;99.90;;;;;;21006054;28;20067;-43
2023/07/04 02:28:40;;;;;;;4.38;2.72;;;11.00;99.90;;;;;;20990089;28;20411;-45
2023/07/04 02:38:42;;;;;;;2.55;2.33;;;11.00;99.90;;;;;;20997806;28;20076;-44
2023/07/04 02:48:44;;;;;;;2.75;2.42;;;11.00;99.90;;;;;;20990398;28;20115;-43
2023/07/04 02:58:46;;;;;;;2.95;2.47;;;11.00;99.90;;;;;;20993042;28;20094;-47
2023/07/04 03:08:48;;;;;;;3.45;2.63;;;11.00;99.90;;;;;;20988663;28;20157;-47
2023/07/04 03:18:51;;;;;;;3.97;2.85;;;11.10;99.90;;;;;;21000685;28;20136;-43
2023/07/04 03:28:54;;;;;;;4.22;3.05;;;11.10;99.90;;;;;;20985002;28;20072;-45
2023/07/04 03:38:58;;;;;;;4.97;3.63;;;11.10;99.90;;;;;;20993155;28;20071;-49
2023/07/04 03:49:02;;;;;;;7.18;3.88;;;11.20;99.90;;;;;;20995768;28;20204;-44
2023/07/04 03:59:04;;;;;;;7.68;3.97;;;11.30;99.90;;;;;;21003836;28;20625;-44
2023/07/04 04:09:06;;;;;;;5.65;4.03;;;11.40;99.90;;;;;;20984307;28;20414;-44
2023/07/04 04:19:07;;;;;;;5.82;3.70;;;11.60;99.90;;;;;;20965782;28;20060;-43
2023/07/04 04:29:09;;;;;;;7.57;5.15;;;11.70;99.90;;;;;;20989176;28;20210;-46
2023/07/04 04:39:11;;;;;;;6.97;5.18;;;11.70;99.90;;;;;;21001254;28;20162;-46
2023/07/04 04:49:12;;;;;;;5.35;4.35;;;12.20;99.90;;;;;;21000852;28;20171;-46
2023/07/04 04:59:14;;;;;;;2.40;2.15;;;12.60;99.90;;;;;;21012596;28;20658;-44
2023/07/04 05:09:15;;;;;;;2.60;2.08;;;13.00;99.90;;;;;;21015876;28;20533;-53
2023/07/04 05:19:17;;;;;;;2.30;2.00;;;13.20;99.90;;;;;;21015903;28;20072;-51
2023/07/04 05:29:19;;;;;;;3.90;1.90;;;13.30;99.90;;;;;;21027736;28;20117;-53
2023/07/04 05:39:20;;;;;;;2.53;1.67;;;13.70;99.90;;;;;;20994915;28;20064;-53
2023/07/04 05:49:22;;;;;;;1.90;1.70;;;14.30;99.90;;;;;;20988594;28;20092;-53
2023/07/04 05:59:24;;;;;;;1.83;1.40;;;14.90;99.90;;;;;;20992735;28;20141;-51
2023/07/04 06:09:25;;;;;;;2.72;1.50;;;15.70;99.90;;;;;;20992583;28;20115;-53
2023/07/04 06:19:28;;;;;;;1.10;1.00;;;16.70;99.90;;;;;;21011773;28;20083;-55
2023/07/04 06:29:30;;;;;;;2.53;1.20;;;18.50;99.90;;;;;;21003298;28;20568;-52
2023/07/04 06:39:32;;;;;;;2.10;1.38;;;18.70;99.90;;;;;;20999338;28;20483;-55
2023/07/04 06:49:33;;;;;;;1.75;1.30;;;19.00;99.90;;;;;;21010024;28;20079;-50
2023/07/04 06:59:35;;;;;;;2.03;1.52;;;19.10;99.90;;;;;;21022461;28;20068;-45
2023/07/04 07:09:41;;;;;;;1.58;1.05;;;19.40;99.90;;;;;;20990538;28;20070;-44
2023/07/04 07:19:43;;;;;;;1.80;1.30;;;20.50;99.90;;;;;;20980942;28;20064;-44
2023/07/04 07:29:48;;;;;;;2.00;1.23;;;21.70;99.90;;;;;;20980905;28;20237;-56
2023/07/04 07:39:51;;;;;;;1.50;1.15;;;21.30;99.90;;;;;;20987718;28;20136;-54
2023/07/04 07:49:52;;;;;;;2.75;1.95;;;20.90;99.90;;;;;;20993566;28;20072;-56
2023/07/04 07:59:54;;;;;;;2.45;1.48;;;22.10;99.90;;;;;;20997034;28;20145;-58
2023/07/04 08:09:56;;;;;;;1.65;1.30;;;22.30;99.90;;;;;;21007859;28;20118;-50
2023/07/04 08:19:58;;;;;;;2.38;1.63;;;21.90;99.90;;;;;;21002383;28;20059;-58
2023/07/04 08:29:59;;;;;;;2.38;1.67;;;24.30;99.90;;;;;;21008855;28;20121;-58
2023/07/04 08:40:01;;;;;;;4.43;1.95;;;26.50;99.90;;;;;;20993159;28;20064;-56
2023/07/04 08:50:08;;;;;;;2.38;2.10;;;26.40;99.90;;;;;;20976193;28;20133;-58
2023/07/04 09:00:38;;;;;;;4.43;2.50;;;26.40;99.90;;;;;;20986210;28;20152;-58
2023/07/04 09:10:47;;;;;;;4.00;2.33;;;26.70;99.90;;;;;;20980188;28;20181;-58
2023/07/04 09:21:13;;;;;;;2.90;2.35;;;25.90;97.70;;;;;;21001031;28;20407;-57
2023/07/04 09:31:25;;;;;;;2.40;2.20;;;24.70;99.90;;;;;;21004516;28;20072;-56
2023/07/04 09:41:36;;;;;;;5.13;2.75;;;24.10;99.90;;;;;;21016780;28;20088;-57
2023/07/04 09:51:38;;;;;;;5.30;2.58;;;25.40;99.90;;;;;;21019352;28;20171;-55
2023/07/04 10:01:42;;;;;;;3.30;2.00;;;24.70;99.90;;;;;;21021409;28;20210;-47
2023/07/04 10:11:44;;;;;;;1.60;1.48;;;23.60;99.90;;;;;;21002989;28;20344;-57
2023/07/04 10:21:51;;;;;;;1.50;1.40;;;25.30;99.90;;;;;;20981055;28;20072;-57
2023/07/04 10:31:53;;;;;;;3.20;1.60;;;26.00;99.90;;;;;;20988277;28;20072;-48
2023/07/04 10:42:15;;;;;;;1.73;1.13;;;24.70;99.90;;;;;;20977119;28;20379;-55
2023/07/04 10:52:22;;;;;;;1.92;1.67;;;23.90;99.90;;;;;;21042920;28;20147;-53
2023/07/04 11:02:31;;;;;;;1.70;1.10;;;23.90;99.90;;;;;;21046254;28;20526;-48
2023/07/04 11:12:34;;;;;;;1.10;0.90;;;24.30;99.90;;;;;;21034736;28;20105;-54
2023/07/04 11:22:58;;;;;;;1.42;1.20;;;25.10;98.30;;;;;;21047333;28;20060;-55
2023/07/04 11:33:00;;;;;;;1.73;1.60;;;25.10;99.90;;;;;;21027679;28;20656;-56
2023/07/04 11:43:21;;;;;;;3.60;1.73;;;26.10;99.90;;;;;;21009513;28;20079;-56
2023/07/04 11:53:24;;;;;;;4.47;1.98;;;26.20;99.90;;;;;;20974951;28;20101;-57
2023/07/04 12:03:29;;;;;;;3.03;1.80;;;26.20;99.90;;;;;;20986904;28;20086;-56
2023/07/04 12:13:34;;;;;;;1.60;1.42;;;26.70;99.90;;;;;;20995276;28;20067;-57
2023/07/04 12:23:36;;;;;;;1.80;1.08;;;26.70;99.90;;;;;;20979258;28;20113;-57
2023/07/04 12:33:45;;;;;;;1.23;1.13;;;26.80;98.50;;;;;;21005001;28;20550;-57
2023/07/04 12:44:00;;;;;;;1.42;1.00;;;26.80;97.50;;;;;;21001416;28;20160;-57
2023/07/04 12:54:03;;;;;;;1.95;1.20;;;26.30;97.20;;;;;;21023057;28;20136;-56
2023/07/04 13:04:10;;;;;;;2.10;1.10;;;26.20;97.00;;;;;;21007181;28;20170;-48
2023/07/04 13:14:12;;;;;;;2.00;1.23;;;26.20;96.90;;;;;;20997243;28;20117;-57
2023/07/04 13:24:26;;;;;;;1.48;1.35;;;26.30;96.50;;;;;;20986359;28;20064;-54
2023/07/04 13:34:31;;;;;;;1.83;1.05;;;25.30;97.20;;;;;;20994902;28;20481;-49
2023/07/04 13:44:33;;;;;;;1.10;0.80;;;24.90;97.00;;;;;;21007108;28;20079;-57
2023/07/04 13:54:34;;;;;;;1.17;0.80;;;25.40;95.90;;;;;;21061693;28;20080;-57
2023/07/04 14:04:36;;;;;;;1.98;0.90;;;25.70;94.10;;;;;;21024140;28;20067;-52
2023/07/04 14:14:38;;;;;;;1.23;0.98;;;25.90;93.20;;;;;;21038038;28;20067;-55
2023/07/04 14:24:39;;;;;;;1.40;0.80;;;26.30;92.80;;;;;;21042780;28;20202;-55
2023/07/04 14:34:41;;;;;;;2.10;1.35;;;26.60;94.00;;;;;;21048513;28;20554;-56
2023/07/04 14:44:44;;;;;;;1.42;1.17;;;26.90;94.50;;;;;;21034733;28;20088;-54
2023/07/04 14:54:46;;;;;;;1.70;1.60;;;27.40;94.00;;;;;;20979624;28;20113;-56
2023/07/04 15:04:48;;;;;;;1.75;1.65;;;27.90;94.50;;;;;;20984307;28;20060;-46
2023/07/04 15:14:50;;;;;;;1.80;1.70;;;28.20;94.10;;;;;;20988825;28;20169;-55
2023/07/04 15:24:51;;;;;;;2.17;1.70;;;28.00;94.10;;;;;;20994715;28;20072;-55
2023/07/04 15:34:53;;;;;;;2.88;2.03;;;27.90;93.60;;;;;;20997718;28;20072;-54
2023/07/04 15:44:55;;;;;;;1.70;1.55;;;27.40;93.60;;;;;;21024334;28;20079;-55
2023/07/04 15:54:57;;;;;;;2.10;1.90;;;27.10;94.10;;;;;;21036746;28;20526;-53
2023/07/04 16:04:58;;;;;;;2.30;1.92;;;26.70;94.50;;;;;;21020921;28;20148;-54
2023/07/04 16:15:00;;;;;;;3.53;2.50;;;24.90;95.60;;;;;;21008200;28;20157;-52
2023/07/04 16:25:02;;;;;;;3.58;2.70;;;23.10;98.70;;;;;;20998504;28;20072;-47
2023/07/04 16:35:04;;;;;;;4.72;2.33;;;21.90;99.90;;;;;;21022902;28;20067;-51
2023/07/04 16:45:08;;;;;;;3.53;2.90;;;21.40;99.90;;;;;;21031340;28;20157;-54
2023/07/04 16:55:10;;;;;;;4.45;3.03;;;20.80;99.90;;;;;;20993338;28;20068;-50
2023/07/04 17:05:12;;;;;;;5.57;4.60;;;19.60;99.90;;;;;;21017715;28;20446;-49
2023/07/04 17:15:14;;;;;;;6.32;4.63;;;19.10;99.90;;;;;;21002247;28;20080;-53
2023/07/04 17:25:15;;;;;;;6.82;4.25;;;19.20;99.90;;;;;;21020673;28;20072;-49
2023/07/04 17:35:17;;;;;;;7.25;5.70;;;19.10;99.90;;;;;;21010825;28;20067;-51
2023/07/04 17:45:19;;;;;;;8.00;5.28;;;18.90;99.90;;;;;;21009148;28;20087;-50
2023/07/04 17:55:21;;;;;;;6.13;5.35;;;18.50;99.90;;;;;;21018710;28;20121;-50
2023/07/04 18:05:22;;;;;;;6.05;4.90;;;18.20;99.90;;;;;;21030750;28;20052;-50
2023/07/04 18:15:28;;;;;;;6.90;5.22;;;18.10;99.90;;;;;;21014881;28;20119;-48
2023/07/04 18:25:29;;;;;;;7.50;5.70;;;17.90;99.90;;;;;;21035482;28;20071;-49
2023/07/04 18:35:31;;;;;;;5.95;5.05;;;17.60;99.90;;;;;;21030329;28;20512;-51
2023/07/04 18:45:40;;;;;;;7.63;5.90;;;17.40;99.90;;;;;;20988021;28;20497;-49
2023/07/04 18:55:41;;;;;;;9.73;6.22;;;17.10;99.90;;;;;;21009276;28;20068;-53
2023/07/04 19:05:43;;;;;;;8.45;6.90;;;17.00;99.90;;;;;;21019585;28;20157;-48
2023/07/04 19:15:54;;;;;;;8.60;6.88;;;17.00;99.90;;;;;;21040815;28;20518;-50
2023/07/04 19:25:56;;;;;;;9.82;7.30;;;17.00;99.90;;;;;;21023840;28;20106;-50
2023/07/04 19:35:59;;;;;;;7.82;6.38;;;17.10;99.90;;;;;;20998369;28;20094;-52
2023/07/04 19:46:03;;;;;;;7.45;6.07;;;17.20;99.90;;;;;;20990780;28;20088;-50
2023/07/04 19:56:09;;;;;;;7.32;5.60;;;17.10;99.90;;;;;;21006270;28;20509;-51
2023/07/04 20:06:12;;;;;;;8.25;6.45;;;17.00;99.90;;;;;;21013087;28;20588;-49
2023/07/04 20:16:21;;;;;;;9.80;5.90;;;16.90;99.90;;;;;;21009503;28;20076;-50
2023/07/04 20:26:23;;;;;;;7.93;6.30;;;16.90;99.90;;;;;;21039311;28;20129;-51
2023/07/04 20:36:25;;;;;;;7.43;5.88;;;16.90;99.90;;;;;;21029252;28;20574;-48
2023/07/04 20:46:27;;;;;;;10.35;6.63;;;16.90;99.90;;;;;;21022716;28;20087;-43
2023/07/04 20:56:29;;;;;;;10.82;7.53;;;16.90;99.90;;;;;;20998995;28;20509;-48
2023/07/04 21:06:31;;;;;;;8.05;6.90;;;16.80;99.90;;;;;;20994807;28;20068;-51
2023/07/04 21:16:33;;;;;;;7.95;6.35;;;16.80;99.90;;;;;;21010860;28;20093;-51
2023/07/04 21:26:35;;;;;;;8.18;6.63;;;16.70;99.90;;;;;;21022236;28;20109;-48
2023/07/04 21:36:36;;;;;;;8.38;6.53;;;16.60;99.90;;;;;;21031061;28;20076;-53
2023/07/04 21:46:38;;;;;;;9.30;7.60;;;16.40;99.90;;;;;;21039433;28;20157;-50
2023/07/04 21:56:40;;;;;;;12.15;7.20;;;16.40;99.90;;;;;;21036266;28;20122;-53
2023/07/04 22:06:42;;;;;;;10.10;6.78;;;16.30;99.90;;;;;;21039081;28;20125;-48
2023/07/04 22:16:43;;;;;;;11.48;7.22;;;16.30;99.90;;;;;;21025932;28;20063;-44
2023/07/04 22:26:45;;;;;;;11.23;7.70;;;16.30;99.90;;;;;;21041466;28;20067;-51
2023/07/04 22:36:46;;;;;;;17.00;11.35;;;16.30;99.90;;;;;;21015347;28;20072;-48
2023/07/04 22:46:48;;;;;;;20.48;13.55;;;16.00;99.90;;;;;;21031541;28;20125;-43
2023/07/04 22:56:50;;;;;;;21.27;12.95;;;15.40;99.90;;;;;;21014447;28;20056;-49
2023/07/04 23:06:52;;;;;;;27.25;17.33;;;15.20;99.90;;;;;;21026928;28;20063;-44
2023/07/04 23:16:53;;;;;;;34.63;20.58;;;14.90;99.90;;;;;;21018591;28;20456;-43
2023/07/04 23:26:55;;;;;;;30.17;19.15;;;14.80;99.90;;;;;;21020083;28;20059;-51
2023/07/04 23:36:57;;;;;;;38.80;21.73;;;14.70;99.90;;;;;;21012405;28;20071;-51
2023/07/04 23:46:58;;;;;;;30.48;20.45;;;14.60;99.90;;;;;;21031480;28;20140;-51
2023/07/04 23:57:00;;;;;;;37.35;22.25;;;14.50;99.90;;;;;;21018807;28;20487;-49
